createdAt,value
2018-09-16T00:02:04.780Z,14.00
2018-09-16T00:04:33.042Z,14.00
2018-09-16T00:07:01.414Z,13.90
2018-09-16T00:09:29.717Z,14.00
2018-09-16T00:11:57.930Z,14.10
2018-09-16T00:14:26.387Z,14.20
2018-09-16T00:16:54.580Z,14.20
2018-09-16T00:19:22.865Z,14.10
2018-09-16T00:21:54.434Z,14.00
2018-09-16T00:24:22.579Z,14.00
2018-09-16T00:26:50.735Z,14.00
2018-09-16T00:29:19.025Z,14.00
2018-09-16T00:31:51.747Z,13.90
2018-09-16T00:34:19.951Z,13.80
2018-09-16T00:36:48.180Z,13.70
2018-09-16T00:39:16.564Z,13.70
2018-09-16T00:41:44.945Z,13.70
2018-09-16T00:44:13.164Z,13.70
2018-09-16T00:46:41.407Z,13.80
2018-09-16T00:49:09.616Z,13.80
2018-09-16T00:51:37.957Z,13.80
2018-09-16T00:54:06.120Z,13.70
2018-09-16T00:56:34.362Z,13.60
2018-09-16T00:59:02.541Z,13.60
2018-09-16T01:01:30.815Z,13.60
2018-09-16T01:03:58.981Z,13.60
2018-09-16T01:06:32.889Z,13.60
2018-09-16T01:09:01.130Z,13.60
2018-09-16T01:11:29.297Z,13.70
2018-09-16T01:13:57.451Z,13.70
2018-09-16T01:16:25.743Z,13.70
2018-09-16T01:18:54.520Z,13.50
2018-09-16T01:21:22.794Z,13.40
2018-09-16T01:23:50.972Z,13.20
2018-09-16T01:26:19.133Z,13.10
2018-09-16T01:28:47.308Z,13.00
2018-09-16T01:31:15.520Z,13.00
2018-09-16T01:33:43.844Z,13.00
2018-09-16T01:36:12.076Z,13.00
2018-09-16T01:38:45.875Z,13.00
2018-09-16T01:41:14.052Z,13.00
2018-09-16T01:43:42.322Z,13.10
2018-09-16T01:46:10.506Z,13.10
2018-09-16T01:48:38.700Z,13.20
2018-09-16T01:51:06.969Z,13.20
2018-09-16T01:53:35.186Z,13.30
2018-09-16T01:56:03.526Z,13.40
2018-09-16T01:58:31.902Z,13.50
2018-09-16T02:01:00.039Z,13.50
2018-09-16T02:03:28.192Z,13.50
2018-09-16T02:05:56.368Z,13.50
2018-09-16T02:08:25.397Z,13.30
2018-09-16T02:10:54.128Z,13.30
2018-09-16T02:13:22.307Z,13.20
2018-09-16T02:15:50.562Z,13.20
2018-09-16T02:18:18.742Z,13.30
2018-09-16T02:20:47.572Z,13.40
2018-09-16T02:23:15.737Z,13.40
2018-09-16T02:25:44.035Z,13.20
2018-09-16T02:28:13.012Z,13.20
2018-09-16T02:30:41.348Z,13.30
2018-09-16T02:33:09.549Z,13.20
2018-09-16T02:35:37.765Z,13.20
2018-09-16T02:38:06.848Z,13.10
2018-09-16T02:40:34.986Z,13.10
2018-09-16T02:43:03.199Z,13.20
2018-09-16T02:45:31.357Z,13.20
2018-09-16T02:47:59.623Z,13.20
2018-09-16T02:50:27.947Z,13.20
2018-09-16T02:52:56.092Z,13.20
2018-09-16T02:55:24.479Z,13.30
2018-09-16T02:57:52.681Z,13.30
2018-09-16T03:00:21.011Z,13.20
2018-09-16T03:02:49.175Z,13.20
2018-09-16T03:05:22.862Z,13.00
2018-09-16T03:07:51.011Z,13.00
2018-09-16T03:10:19.242Z,13.00
2018-09-16T03:12:47.557Z,12.90
2018-09-16T03:15:15.689Z,12.90
2018-09-16T03:17:43.876Z,12.90
2018-09-16T03:20:12.140Z,12.90
2018-09-16T03:22:40.299Z,13.00
2018-09-16T03:25:08.423Z,12.90
2018-09-16T03:27:36.570Z,13.00
2018-09-16T03:30:05.038Z,13.00
2018-09-16T03:32:33.233Z,12.90
2018-09-16T03:35:01.442Z,12.80
2018-09-16T03:37:29.603Z,12.80
2018-09-16T03:39:57.815Z,12.80
2018-09-16T03:42:26.184Z,12.70
2018-09-16T03:44:54.396Z,12.70
2018-09-16T03:47:22.603Z,12.60
2018-09-16T03:49:50.831Z,12.70
2018-09-16T03:52:19.058Z,12.80
2018-09-16T03:54:47.236Z,12.70
2018-09-16T03:57:15.478Z,12.70
2018-09-16T03:59:43.714Z,12.80
2018-09-16T04:02:12.024Z,12.70
2018-09-16T04:04:40.206Z,12.60
2018-09-16T04:07:08.665Z,12.50
2018-09-16T04:09:36.841Z,12.50
2018-09-16T04:12:05.146Z,12.30
2018-09-16T04:14:34.038Z,12.30
2018-09-16T04:17:02.298Z,12.30
2018-09-16T04:19:30.570Z,12.30
2018-09-16T04:21:58.751Z,12.50
2018-09-16T04:24:26.928Z,12.40
2018-09-16T04:26:55.082Z,12.30
2018-09-16T04:29:23.257Z,12.40
2018-09-16T04:31:51.535Z,12.40
2018-09-16T04:34:19.791Z,12.40
2018-09-16T04:36:47.947Z,12.50
2018-09-16T04:39:16.146Z,12.50
2018-09-16T04:41:44.355Z,12.60
2018-09-16T04:44:12.512Z,12.60
2018-09-16T04:46:41.389Z,12.50
2018-09-16T04:49:09.676Z,12.40
2018-09-16T04:51:37.839Z,12.30
2018-09-16T04:54:06.059Z,12.20
2018-09-16T04:56:34.339Z,12.40
2018-09-16T04:59:02.613Z,12.40
2018-09-16T05:01:30.812Z,12.40
2018-09-16T05:03:59.049Z,12.40
2018-09-16T05:06:27.229Z,12.40
2018-09-16T05:09:02.193Z,12.30
2018-09-16T05:11:30.340Z,12.30
2018-09-16T05:13:58.551Z,12.30
2018-09-16T05:16:26.760Z,12.40
2018-09-16T05:18:55.053Z,12.30
2018-09-16T05:21:23.239Z,12.30
2018-09-16T05:23:51.410Z,12.30
2018-09-16T05:26:19.639Z,12.20
2018-09-16T05:28:47.852Z,12.20
2018-09-16T05:31:16.095Z,12.20
2018-09-16T05:33:44.220Z,12.10
2018-09-16T05:36:12.397Z,12.10
2018-09-16T05:38:40.572Z,12.10
2018-09-16T05:41:08.810Z,12.10
2018-09-16T05:43:36.919Z,12.20
2018-09-16T05:46:05.150Z,12.10
2018-09-16T05:48:33.284Z,12.00
2018-09-16T05:51:01.583Z,12.00
2018-09-16T05:53:29.949Z,12.10
2018-09-16T05:55:58.091Z,12.10
2018-09-16T05:58:26.319Z,12.20
2018-09-16T06:00:54.628Z,12.30
2018-09-16T06:03:22.839Z,12.40
2018-09-16T06:05:51.083Z,12.40
2018-09-16T06:08:19.847Z,12.40
2018-09-16T06:10:49.052Z,12.40
2018-09-16T06:13:17.521Z,12.50
2018-09-16T06:15:45.809Z,12.50
2018-09-16T06:18:14.110Z,12.50
2018-09-16T06:20:42.688Z,12.60
2018-09-16T06:23:10.923Z,12.70
2018-09-16T06:25:39.245Z,12.70
2018-09-16T06:28:07.519Z,12.80
2018-09-16T06:30:35.797Z,12.90
2018-09-16T06:33:04.073Z,12.80
2018-09-16T06:35:32.375Z,12.80
2018-09-16T06:38:00.601Z,12.90
2018-09-16T06:40:29.037Z,12.90
2018-09-16T06:42:57.298Z,12.90
2018-09-16T06:45:25.601Z,12.90
2018-09-16T06:47:54.014Z,13.00
2018-09-16T06:50:22.230Z,13.00
2018-09-16T06:52:50.415Z,13.10
2018-09-16T06:55:18.667Z,13.30
2018-09-16T06:57:46.847Z,13.40
2018-09-16T07:00:15.096Z,13.50
2018-09-16T07:02:46.736Z,13.50
2018-09-16T07:05:14.955Z,13.60
2018-09-16T07:07:43.389Z,13.70
2018-09-16T07:10:12.120Z,13.80
2018-09-16T07:12:40.389Z,13.80
2018-09-16T07:15:08.653Z,13.90
2018-09-16T07:17:36.855Z,14.00
2018-09-16T07:20:05.340Z,14.10
2018-09-16T07:22:33.543Z,14.20
2018-09-16T07:25:01.799Z,14.30
2018-09-16T07:27:30.213Z,14.30
2018-09-16T07:29:58.467Z,14.40
2018-09-16T07:32:26.918Z,14.40
2018-09-16T07:34:55.243Z,14.50
2018-09-16T07:37:23.523Z,14.60
2018-09-16T07:39:51.757Z,14.70
2018-09-16T07:42:20.112Z,14.80
2018-09-16T07:44:48.427Z,14.90
2018-09-16T07:47:16.758Z,15.00
2018-09-16T07:49:45.008Z,15.10
2018-09-16T07:52:13.338Z,15.20
2018-09-16T07:54:41.601Z,15.30
2018-09-16T07:57:09.822Z,15.30
2018-09-16T07:59:38.069Z,15.40
2018-09-16T08:02:06.274Z,15.50
2018-09-16T08:04:35.039Z,15.60
2018-09-16T08:07:03.325Z,15.70
2018-09-16T08:09:32.394Z,15.70
2018-09-16T08:12:00.576Z,15.80
2018-09-16T08:14:28.900Z,15.90
2018-09-16T08:16:57.041Z,15.80
2018-09-16T08:19:25.524Z,15.90
2018-09-16T08:21:53.851Z,16.00
2018-09-16T08:24:22.911Z,16.10
2018-09-16T08:26:51.297Z,16.20
2018-09-16T08:29:19.934Z,16.40
2018-09-16T08:31:48.403Z,16.50
2018-09-16T08:34:16.526Z,16.60
2018-09-16T08:36:44.686Z,16.60
2018-09-16T08:39:12.917Z,16.70
2018-09-16T08:41:41.156Z,16.80
2018-09-16T08:44:09.504Z,16.90
2018-09-16T08:46:37.726Z,17.00
2018-09-16T08:49:06.087Z,17.10
2018-09-16T08:51:34.774Z,17.20
2018-09-16T08:54:03.111Z,17.20
2018-09-16T08:56:31.363Z,17.20
2018-09-16T08:58:59.660Z,17.30
2018-09-16T09:01:28.005Z,17.40
2018-09-16T09:03:56.243Z,17.50
2018-09-16T09:06:24.899Z,17.50
2018-09-16T09:08:53.309Z,17.70
2018-09-16T09:11:21.584Z,17.80
2018-09-16T09:13:49.790Z,17.90
2018-09-16T09:16:18.083Z,18.00
2018-09-16T09:18:46.581Z,18.00
2018-09-16T09:21:14.799Z,18.10
2018-09-16T09:23:43.251Z,18.30
2018-09-16T09:26:11.547Z,18.30
2018-09-16T09:28:41.237Z,18.40
2018-09-16T09:31:09.495Z,18.50
2018-09-16T09:33:37.698Z,18.60
2018-09-16T09:36:06.169Z,18.60
2018-09-16T09:38:34.441Z,18.70
2018-09-16T09:41:02.704Z,18.80
2018-09-16T09:43:30.959Z,18.90
2018-09-16T09:45:59.576Z,19.00
2018-09-16T09:48:28.337Z,19.00
2018-09-16T09:50:56.634Z,19.10
2018-09-16T09:53:24.918Z,19.10
2018-09-16T09:55:53.260Z,19.20
2018-09-16T09:58:21.590Z,19.30
2018-09-16T10:00:51.177Z,19.30
2018-09-16T10:03:20.548Z,19.50
2018-09-16T10:05:49.354Z,19.50
2018-09-16T10:08:17.718Z,19.60
2018-09-16T10:10:46.104Z,19.70
2018-09-16T10:13:14.987Z,19.80
2018-09-16T10:15:43.594Z,19.90
2018-09-16T10:18:11.850Z,20.00
2018-09-16T10:20:40.775Z,20.10
2018-09-16T10:23:09.000Z,20.20
2018-09-16T10:25:38.037Z,20.20
2018-09-16T10:28:06.252Z,20.30
2018-09-16T10:30:34.589Z,20.30
2018-09-16T10:33:03.328Z,20.40
2018-09-16T10:35:38.182Z,20.50
2018-09-16T10:38:06.471Z,20.50
2018-09-16T10:40:34.714Z,20.60
2018-09-16T10:43:02.972Z,20.60
2018-09-16T10:45:31.201Z,20.60
2018-09-16T10:47:59.455Z,20.60
2018-09-16T10:50:27.739Z,20.70
2018-09-16T10:52:56.140Z,20.80
2018-09-16T10:55:24.429Z,20.90
2018-09-16T10:57:52.667Z,21.00
2018-09-16T11:00:20.866Z,21.10
2018-09-16T11:02:49.124Z,21.20
2018-09-16T11:05:17.755Z,21.20
2018-09-16T11:07:46.164Z,21.30
2018-09-16T11:10:14.366Z,21.30
2018-09-16T11:12:43.459Z,21.30
2018-09-16T11:15:11.830Z,21.30
2018-09-16T11:17:40.860Z,21.40
2018-09-16T11:20:09.394Z,21.40
2018-09-16T11:22:37.635Z,21.50
2018-09-16T11:25:06.074Z,21.60
2018-09-16T11:27:34.564Z,21.60
2018-09-16T11:30:02.944Z,21.70
2018-09-16T11:32:33.028Z,21.80
2018-09-16T11:35:01.412Z,21.80
2018-09-16T11:37:29.654Z,21.90
2018-09-16T11:39:57.843Z,21.90
2018-09-16T11:55:20.736Z,23.80
2018-09-16T11:57:48.988Z,24.10
2018-09-16T12:00:17.332Z,24.10
2018-09-16T12:02:45.758Z,23.80
2018-09-16T12:05:14.083Z,23.50
2018-09-16T12:07:42.323Z,23.40
2018-09-16T12:10:11.562Z,23.30
2018-09-16T12:12:39.771Z,23.20
2018-09-16T12:15:07.999Z,23.10
2018-09-16T12:17:36.215Z,23.20
2018-09-16T12:20:04.625Z,23.20
2018-09-16T12:22:33.159Z,23.20
2018-09-16T12:25:01.405Z,23.30
2018-09-16T12:27:29.662Z,23.30
2018-09-16T12:29:57.930Z,23.30
2018-09-16T12:32:26.294Z,23.30
2018-09-16T12:34:54.875Z,23.30
2018-09-16T12:37:23.127Z,23.40
2018-09-16T12:39:51.427Z,23.30
2018-09-16T12:42:19.647Z,23.30
2018-09-16T12:44:47.943Z,23.20
2018-09-16T12:47:16.127Z,23.20
2018-09-16T12:49:44.341Z,23.30
2018-09-16T12:52:12.748Z,23.30
2018-09-16T12:54:41.233Z,23.40
2018-09-16T12:57:09.565Z,23.40
2018-09-16T12:59:37.760Z,23.50
2018-09-16T13:02:06.284Z,23.60
2018-09-16T13:04:34.659Z,23.60
2018-09-16T13:07:02.971Z,23.70
2018-09-16T13:09:31.259Z,23.70
2018-09-16T13:11:59.643Z,23.80
2018-09-16T13:14:28.065Z,23.80
2018-09-16T13:16:56.405Z,23.90
2018-09-16T13:19:24.594Z,23.90
2018-09-16T13:21:52.830Z,23.90
2018-09-16T13:24:21.056Z,24.00
2018-09-16T13:26:49.270Z,24.00
2018-09-16T13:29:17.615Z,23.90
2018-09-16T13:31:45.871Z,24.00
2018-09-16T13:34:14.035Z,24.00
2018-09-16T13:36:42.249Z,24.10
2018-09-16T13:39:11.104Z,24.20
2018-09-16T13:41:39.499Z,24.20
2018-09-16T13:44:07.891Z,24.10
2018-09-16T13:46:37.117Z,24.20
2018-09-16T13:49:05.919Z,24.10
2018-09-16T13:51:34.738Z,24.10
2018-09-16T13:54:02.944Z,24.20
2018-09-16T13:56:31.263Z,24.10
2018-09-16T13:58:59.537Z,24.10
2018-09-16T14:01:28.165Z,24.20
2018-09-16T14:03:56.641Z,24.20
2018-09-16T14:06:24.861Z,24.30
2018-09-16T14:08:53.087Z,24.30
2018-09-16T14:11:21.318Z,24.40
2018-09-16T14:13:49.620Z,24.60
2018-09-16T14:16:17.828Z,24.70
2018-09-16T14:18:46.032Z,24.70
2018-09-16T14:21:14.331Z,24.60
2018-09-16T14:23:42.640Z,24.60
2018-09-16T14:26:12.058Z,24.70
2018-09-16T14:28:40.972Z,24.70
2018-09-16T14:31:11.547Z,24.70
2018-09-16T14:33:40.650Z,24.70
2018-09-16T14:38:48.008Z,24.90
2018-09-16T14:41:19.297Z,24.90
2018-09-16T14:43:47.616Z,24.90
2018-09-16T14:46:16.897Z,25.00
2018-09-16T14:48:45.488Z,25.10
2018-09-16T14:51:13.783Z,25.20
2018-09-16T14:53:42.059Z,25.00
2018-09-16T14:56:10.369Z,25.10
2018-09-16T14:58:39.750Z,25.30
2018-09-16T15:01:08.163Z,25.50
2018-09-16T15:03:36.421Z,25.70
2018-09-16T15:06:04.760Z,25.90
2018-09-16T15:08:33.842Z,25.90
2018-09-16T15:11:02.800Z,26.10
2018-09-16T15:13:31.124Z,26.00
2018-09-16T15:15:59.367Z,25.90
2018-09-16T15:18:27.947Z,25.90
2018-09-16T15:20:57.207Z,26.00
2018-09-16T15:23:25.415Z,26.00
2018-09-16T15:25:54.859Z,25.90
2018-09-16T15:28:23.208Z,25.80
2018-09-16T15:30:51.535Z,25.60
2018-09-16T15:33:21.142Z,25.50
2018-09-16T15:35:49.537Z,25.30
2018-09-16T15:38:17.780Z,25.20
2018-09-16T15:40:46.678Z,25.10
2018-09-16T15:43:15.120Z,25.10
2018-09-16T15:45:43.351Z,24.90
2018-09-16T15:48:11.665Z,24.90
2018-09-16T15:50:40.505Z,24.90
2018-09-16T15:53:09.069Z,24.80
2018-09-16T15:55:37.380Z,24.80
2018-09-16T15:58:05.768Z,24.80
2018-09-16T16:00:34.221Z,24.70
2018-09-16T16:03:02.817Z,24.70
2018-09-16T16:05:31.209Z,24.80
2018-09-16T16:08:00.772Z,24.70
2018-09-16T16:10:29.121Z,24.60
2018-09-16T16:12:57.445Z,24.50
2018-09-16T16:15:25.716Z,24.50
2018-09-16T16:17:54.123Z,24.40
2018-09-16T16:20:22.416Z,24.40
2018-09-16T16:22:50.698Z,24.20
2018-09-16T16:25:19.012Z,24.20
2018-09-16T16:27:47.332Z,24.10
2018-09-16T16:30:15.564Z,24.10
2018-09-16T16:32:43.857Z,24.00
2018-09-16T16:35:12.335Z,24.00
2018-09-16T16:37:40.625Z,24.00
2018-09-16T16:40:09.257Z,23.90
2018-09-16T16:42:37.555Z,23.80
2018-09-16T16:45:07.019Z,23.70
2018-09-16T16:47:38.553Z,23.70
2018-09-16T16:50:07.887Z,23.70
2018-09-16T16:52:36.360Z,23.70
2018-09-16T16:55:09.472Z,23.60
2018-09-16T16:57:56.971Z,23.70
2018-09-16T17:00:25.259Z,23.70
2018-09-16T17:02:56.176Z,23.50
2018-09-16T17:05:27.115Z,23.50
2018-09-16T17:07:55.459Z,23.50
2018-09-16T17:10:23.811Z,23.40
2018-09-16T17:12:52.136Z,23.40
2018-09-16T17:15:22.556Z,23.30
2018-09-16T17:17:51.742Z,23.30
2018-09-16T17:20:20.590Z,23.20
2018-09-16T17:22:49.049Z,23.10
2018-09-16T17:25:17.229Z,23.10
2018-09-16T17:27:45.524Z,23.00
2018-09-16T17:30:13.884Z,22.90
2018-09-16T17:32:42.355Z,22.80
2018-09-16T17:35:10.612Z,22.60
2018-09-16T17:37:38.854Z,22.40
2018-09-16T17:40:07.594Z,22.40
2018-09-16T17:42:36.147Z,22.40
2018-09-16T17:45:05.631Z,22.30
2018-09-16T17:47:38.284Z,22.20
2018-09-16T17:50:06.995Z,22.10
2018-09-16T17:52:35.264Z,22.00
2018-09-16T17:55:03.703Z,21.90
2018-09-16T17:57:32.041Z,21.70
2018-09-16T18:00:00.584Z,21.60
2018-09-16T18:02:28.874Z,21.60
2018-09-16T18:04:57.242Z,21.50
2018-09-16T18:07:25.508Z,21.40
2018-09-16T18:09:53.896Z,21.30
2018-09-16T18:12:24.111Z,21.20
2018-09-16T18:14:52.732Z,21.20
2018-09-16T18:17:21.199Z,21.10
2018-09-16T18:19:49.472Z,20.90
2018-09-16T18:22:19.952Z,20.90
2018-09-16T18:24:48.270Z,20.80
2018-09-16T18:27:16.713Z,20.70
2018-09-16T18:29:45.284Z,20.70
2018-09-16T18:32:13.536Z,20.70
2018-09-16T18:34:41.899Z,20.60
2018-09-16T18:39:59.747Z,20.40
2018-09-16T18:42:28.945Z,20.30
2018-09-16T18:44:57.320Z,20.30
2018-09-16T18:47:26.040Z,20.20
2018-09-16T18:49:54.388Z,20.20
2018-09-16T18:52:23.759Z,20.10
2018-09-16T18:59:58.473Z,20.20
2018-09-16T19:05:06.806Z,20.10
2018-09-16T19:10:58.365Z,19.90
2018-09-16T19:13:27.115Z,19.90
2018-09-16T19:15:55.504Z,19.80
2018-09-16T19:18:24.129Z,19.60
2018-09-16T19:20:52.726Z,19.60
2018-09-16T19:23:21.397Z,19.60
2018-09-16T19:25:49.971Z,19.50
2018-09-16T19:28:18.293Z,19.50
2018-09-16T19:30:47.747Z,19.50
2018-09-16T19:33:16.562Z,19.40
2018-09-16T19:35:44.958Z,19.30
2018-09-16T19:38:13.632Z,19.30
2018-09-16T19:40:42.030Z,19.20
2018-09-16T19:43:11.588Z,19.20
2018-09-16T19:45:40.041Z,19.10
2018-09-16T19:48:09.148Z,19.10
2018-09-16T19:50:37.664Z,19.00
2018-09-16T19:53:06.113Z,19.00
2018-09-16T19:55:35.129Z,18.90
2018-09-16T19:58:03.765Z,18.90
2018-09-16T20:00:32.065Z,18.90
2018-09-16T20:03:00.829Z,18.90
2018-09-16T20:05:30.859Z,18.90
2018-09-16T20:07:59.766Z,18.90
2018-09-16T20:10:29.563Z,18.90
2018-09-16T20:13:00.159Z,19.00
2018-09-16T20:15:28.791Z,18.80
2018-09-16T20:17:57.338Z,18.70
2018-09-16T20:20:26.448Z,18.70
2018-09-16T20:22:55.448Z,18.70
2018-09-16T20:25:24.954Z,18.70
2018-09-16T20:27:53.684Z,18.80
2018-09-16T20:30:22.628Z,18.70
2018-09-16T20:32:50.818Z,18.60
2018-09-16T20:35:20.240Z,18.50
2018-09-16T20:37:48.670Z,18.50
2018-09-16T20:40:17.179Z,18.40
2018-09-16T20:42:45.637Z,18.40
2018-09-16T20:45:14.067Z,18.40
2018-09-16T20:47:42.764Z,18.40
2018-09-16T20:50:11.186Z,18.30
2018-09-16T20:52:39.568Z,18.30
2018-09-16T20:55:08.584Z,18.20
2018-09-16T20:57:36.856Z,18.10
2018-09-16T21:00:06.152Z,18.10
2018-09-16T21:02:34.724Z,18.00
2018-09-16T21:05:04.034Z,18.00
2018-09-16T21:07:32.517Z,17.90
2018-09-16T21:10:01.043Z,17.90
2018-09-16T21:12:29.277Z,17.90
2018-09-16T21:14:57.587Z,18.00
2018-09-16T21:17:25.848Z,18.00
2018-09-16T21:19:54.372Z,17.90
2018-09-16T21:22:22.494Z,17.90
2018-09-16T21:24:50.753Z,17.90
2018-09-16T21:27:19.750Z,17.80
2018-09-16T21:29:47.996Z,17.70
2018-09-16T21:32:16.444Z,17.70
2018-09-16T21:34:44.689Z,17.70
2018-09-16T21:37:13.052Z,17.70
2018-09-16T21:39:41.534Z,17.60
2018-09-16T21:42:09.739Z,17.60
2018-09-16T21:44:37.991Z,17.50
2018-09-16T21:47:06.327Z,17.50
2018-09-16T21:49:34.676Z,17.40
2018-09-16T21:52:02.971Z,17.30
2018-09-16T21:54:31.190Z,17.30
2018-09-16T21:56:59.689Z,17.30
2018-09-16T21:59:28.019Z,17.20
2018-09-16T22:01:56.252Z,17.20
2018-09-16T22:04:24.546Z,17.20
2018-09-16T22:06:52.813Z,17.20
2018-09-16T22:09:23.335Z,17.10
2018-09-16T22:11:52.384Z,16.90
2018-09-16T22:14:20.718Z,16.90
2018-09-16T22:16:49.092Z,16.90
2018-09-16T22:19:17.409Z,16.80
2018-09-16T22:21:45.611Z,16.80
2018-09-16T22:24:13.909Z,16.80
2018-09-16T22:26:42.163Z,16.80
2018-09-16T22:29:10.424Z,16.70
2018-09-16T22:31:38.751Z,16.70
2018-09-16T22:34:07.169Z,16.70
2018-09-16T22:36:35.628Z,16.70
2018-09-16T22:39:06.032Z,16.80
2018-09-16T22:41:34.364Z,16.60
2018-09-16T22:44:02.648Z,16.60
2018-09-16T22:46:30.924Z,16.50
2018-09-16T22:48:59.194Z,16.50
2018-09-16T22:51:27.406Z,16.50
2018-09-16T22:53:55.641Z,16.40
2018-09-16T22:56:23.935Z,16.40
2018-09-16T22:58:52.370Z,16.40
2018-09-16T23:01:20.974Z,16.40
2018-09-16T23:03:49.271Z,16.40
2018-09-16T23:06:18.024Z,16.40
2018-09-16T23:08:54.684Z,16.30
2018-09-16T23:11:23.427Z,16.30
2018-09-16T23:13:51.778Z,16.30
2018-09-16T23:16:20.115Z,16.30
2018-09-16T23:18:49.185Z,16.30
2018-09-16T23:21:17.498Z,16.30
2018-09-16T23:23:45.743Z,16.30
2018-09-16T23:26:14.255Z,16.20
2018-09-16T23:28:42.507Z,16.10
2018-09-16T23:31:10.751Z,16.30
2018-09-16T23:33:39.007Z,16.10
2018-09-16T23:36:07.409Z,16.20
2018-09-16T23:38:35.792Z,16.20
2018-09-16T23:41:05.124Z,16.10
2018-09-16T23:43:33.681Z,16.10
2018-09-16T23:46:02.029Z,16.10
2018-09-16T23:48:30.363Z,16.00
2018-09-16T23:50:58.969Z,16.00
2018-09-16T23:53:27.248Z,15.90
2018-09-16T23:55:55.517Z,15.90
2018-09-16T23:58:23.700Z,15.90
